Station Historical Data
Daily Summary for October 26, 2017 Units:  Metric    English   Both
« Previous Day
Next Day »
Daily Weekly Monthly Yearly Custom
  High: Low: Average:
Temperature: 11.6 °C 2 °C 6.3 °C
Dew Point: 5.9 °C 0.4 °C 2.5 °C
Humidity: 95% 51% 78%
Wind Speed: 14.5km/h 0km/h 2.1km/h
Wind Gust: 22.5km/h - -
Wind- - West
Pressure: 1013.1 hPa 1009.7 hPa -
Precipitation: 0 mm    
Historical Graphs
 
 
Tabular Data for October 26, 2017
Time Temperature Dew Point Pressure Wind Wind Speed Wind Gust Humidity Rainfall Rate (Hourly)
00:04 6.5 °C 4.8 °C 1009.7 hPa Calm     89% 0 mm
00:09 6.6 °C 4.9 °C 1009.7 hPa Calm     89% 0 mm
00:14 6.6 °C 5.1 °C 1009.7 hPa Calm     90% 0 mm
00:19 6.6 °C 5.1 °C 1009.7 hPa Calm     90% 0 mm
00:24 6.4 °C 4.8 °C 1009.7 hPa Calm     89% 0 mm
00:29 6.4 °C 4.7 °C 1009.7 hPa Calm     89% 0 mm
00:34 6.3 °C 4.7 °C 1010 hPa Calm     89% 0 mm
00:39 6.2 °C 4.7 °C 1010 hPa Calm     90% 0 mm
00:44 6.1 °C 4.4 °C 1010 hPa Calm     89% 0 mm
00:49 6 °C 4.3 °C 1010 hPa Calm     89% 0 mm
00:54 5.8 °C 4.3 °C 1010 hPa Calm     90% 0 mm
00:59 5.8 °C 4.3 °C 1010 hPa Calm     90% 0 mm
01:04 5.7 °C 4.2 °C 1010 hPa Calm     90% 0 mm
01:09 5.7 °C 4.2 °C 1010 hPa Calm     90% 0 mm
01:14 5.8 °C 4.3 °C 1010 hPa Calm     90% 0 mm
01:19 5.8 °C 4.3 °C 1010 hPa Calm     90% 0 mm
01:24 5.8 °C 4.3 °C 1010 hPa Calm     90% 0 mm
01:29 5.8 °C 4.4 °C 1010 hPa Calm     91% 0 mm
01:34 5.8 °C 4.3 °C 1010 hPa Calm     90% 0 mm
01:39 5.7 °C 4.2 °C 1010 hPa Calm     90% 0 mm
01:44 5.5 °C 4 °C 1010 hPa Calm     90% 0 mm
01:49 5.3 °C 3.8 °C 1010 hPa Calm     90% 0 mm
01:54 5.2 °C 3.7 °C 1010.4 hPa Calm     90% 0 mm
01:59 4.9 °C 3.4 °C 1010 hPa Calm     90% 0 mm
02:04 4.8 °C 3.4 °C 1010.4 hPa Calm     91% 0 mm
02:09 4.6 °C 3.1 °C 1010.4 hPa Calm     90% 0 mm
02:14 4.4 °C 3.1 °C 1010.4 hPa Calm     91% 0 mm
02:19 4.4 °C 3.1 °C 1010.4 hPa Calm     91% 0 mm
02:24 4.4 °C 3.1 °C 1010.4 hPa Calm     91% 0 mm
02:29 4.4 °C 3.1 °C 1010.4 hPa Calm     91% 0 mm
02:34 4.3 °C 3 °C 1010.4 hPa Calm     91% 0 mm
02:39 4.2 °C 2.8 °C 1010.4 hPa Calm     91% 0 mm
02:44 4.1 °C 2.7 °C 1010.4 hPa Calm     91% 0 mm
02:49 4.1 °C 2.7 °C 1010.4 hPa Calm     91% 0 mm
02:54 4.1 °C 2.7 °C 1010.4 hPa Calm     91% 0 mm
02:59 4.1 °C 2.9 °C 1010.4 hPa Calm     92% 0 mm
03:04 4.1 °C 2.9 °C 1010.4 hPa Calm     92% 0 mm
03:09 3.9 °C 2.8 °C 1010.4 hPa Calm     92% 0 mm
03:14 3.8 °C 2.7 °C 1010.4 hPa Calm     92% 0 mm
03:19 3.9 °C 2.7 °C 1010.4 hPa Calm     92% 0 mm
03:24 3.9 °C 2.7 °C 1010.4 hPa Calm     92% 0 mm
03:29 3.9 °C 2.8 °C 1010.4 hPa Calm     92% 0 mm
03:34 3.9 °C 2.8 °C 1010.4 hPa Calm     92% 0 mm
03:39 3.8 °C 2.6 °C 1010.4 hPa Calm     92% 0 mm
03:44 3.6 °C 2.4 °C 1010.4 hPa Calm     92% 0 mm
03:49 3.6 °C 2.4 °C 1010.4 hPa Calm     92% 0 mm
03:54 3.6 °C 2.4 °C 1010.4 hPa Calm     92% 0 mm
03:59 3.5 °C 2.3 °C 1010.7 hPa Calm     92% 0 mm
04:04 3.4 °C 2.2 °C 1010.7 hPa Calm     92% 0 mm
04:09 3.3 °C 2.2 °C 1010.7 hPa Calm     92% 0 mm
04:14 3.3 °C 2.1 °C 1010.7 hPa Calm     92% 0 mm
04:19 3.2 °C 2 °C 1010.7 hPa Calm     92% 0 mm
04:24 3.1 °C 1.9 °C 1010.7 hPa Calm     92% 0 mm
04:29 3.1 °C 1.9 °C 1010.7 hPa Calm     92% 0 mm
04:34 3.1 °C 2.1 °C 1010.7 hPa Calm     93% 0 mm
04:39 3 °C 1.8 °C 1010.7 hPa Calm     92% 0 mm
04:44 3 °C 2 °C 1010.7 hPa Calm     93% 0 mm
04:49 3 °C 1.8 °C 1011.1 hPa Calm     92% 0 mm
04:54 2.9 °C 1.7 °C 1011.1 hPa Calm     92% 0 mm
04:59 2.8 °C 1.8 °C 1011.1 hPa Calm     93% 0 mm
05:04 2.7 °C 1.6 °C 1011.1 hPa Calm     92% 0 mm
05:09 2.7 °C 1.6 °C 1011.1 hPa Calm     92% 0 mm
05:14 2.7 °C 1.5 °C 1011.1 hPa Calm     92% 0 mm
05:19 2.6 °C 1.4 °C 1011.1 hPa Calm     92% 0 mm
05:24 2.7 °C 1.7 °C 1011.1 hPa Calm     93% 0 mm
05:29 2.7 °C 1.7 °C 1011.1 hPa Calm     93% 0 mm
05:34 2.7 °C 1.7 °C 1011.1 hPa Calm     93% 0 mm
05:39 2.6 °C 1.6 °C 1011.1 hPa Calm     93% 0 mm
05:44 2.6 °C 1.6 °C 1011.4 hPa Calm     93% 0 mm
05:49 2.5 °C 1.5 °C 1011.1 hPa Calm     93% 0 mm
05:54 2.5 °C 1.5 °C 1011.4 hPa Calm     93% 0 mm
05:59 2.4 °C 1.4 °C 1011.4 hPa Calm     93% 0 mm
06:04 2.4 °C 1.4 °C 1011.4 hPa Calm     93% 0 mm
06:09 2.3 °C 1.3 °C 1011.4 hPa Calm     93% 0 mm
06:14 2.3 °C 1.3 °C 1011.4 hPa Calm     93% 0 mm
06:19 2.2 °C 1.2 °C 1011.4 hPa Calm     93% 0 mm
06:24 2.2 °C 1.2 °C 1011.7 hPa Calm     93% 0 mm
06:29 2.3 °C 1.3 °C 1011.7 hPa Calm     93% 0 mm
06:34 2.2 °C 1.2 °C 1011.7 hPa Calm     93% 0 mm
06:39 2.2 °C 1.2 °C 1011.7 hPa Calm     93% 0 mm
06:44 2.2 °C 1.2 °C 1011.7 hPa Calm     93% 0 mm
06:49 2.1 °C 1.1 °C 1011.7 hPa Calm     93% 0 mm
06:54 2.2 °C 1.2 °C 1011.7 hPa Calm     93% 0 mm
06:59 2.1 °C 1.1 °C 1012.1 hPa Calm     93% 0 mm
07:04 2.1 °C 1.1 °C 1012.1 hPa Calm     93% 0 mm
07:09 2 °C 1 °C 1012.1 hPa Calm     93% 0 mm
07:14 2.1 °C 1.1 °C 1012.1 hPa Calm     93% 0 mm
07:19 2.1 °C 1.1 °C 1012.1 hPa Calm     93% 0 mm
07:24 2.3 °C 1.4 °C 1012.4 hPa Calm     94% 0 mm
07:29 2.4 °C 1.5 °C 1012.4 hPa Calm     94% 0 mm
07:34 2.7 °C 1.8 °C 1012.1 hPa Calm     94% 0 mm
07:39 2.9 °C 2.1 °C 1012.4 hPa Calm     94% 0 mm
07:44 2.9 °C 1.9 °C 1012.4 hPa Calm     93% 0 mm
07:49 2.7 °C 1.7 °C 1012.4 hPa Calm     93% 0 mm
07:54 2.8 °C 1.9 °C 1012.4 hPa Calm     94% 0 mm
07:59 2.7 °C 1.8 °C 1012.4 hPa Calm     94% 0 mm
08:04 2.4 °C 1.4 °C 1012.4 hPa Calm     93% 0 mm
08:09 2.4 °C 1.4 °C 1012.4 hPa Calm     93% 0 mm
08:14 2.4 °C 1.4 °C 1012.8 hPa Calm     93% 0 mm
08:19 2.4 °C 1.4 °C 1012.8 hPa Calm     93% 0 mm
08:24 2.6 °C 1.7 °C 1012.4 hPa Calm     94% 0 mm
08:29 2.7 °C 1.8 °C 1012.4 hPa Calm     94% 0 mm
08:34 2.8 °C 1.9 °C 1012.4 hPa Calm     94% 0 mm
08:39 3.1 °C 2.2 °C 1012.4 hPa Calm     94% 0 mm
08:44 3.5 °C 2.6 °C 1012.4 hPa Calm     94% 0 mm
08:49 3.8 °C 2.9 °C 1012.4 hPa Calm     94% 0 mm
08:54 4.2 °C 3.3 °C 1012.4 hPa Calm     94% 0 mm
08:59 4.6 °C 3.7 °C 1012.4 hPa Calm     94% 0 mm
09:04 4.8 °C 3.9 °C 1012.8 hPa Calm     94% 0 mm
09:09 5.1 °C 4.4 °C 1012.8 hPa Calm     95% 0 mm
09:14 5.4 °C 4.7 °C 1012.8 hPa Calm     95% 0 mm
09:19 5.6 °C 4.7 °C 1012.8 hPa Calm     94% 0 mm
09:24 5.9 °C 5.1 °C 1012.8 hPa Calm     94% 0 mm
09:29 6.1 °C 5.2 °C 1012.8 hPa Calm     94% 0 mm
09:34 6.2 °C 5.3 °C 1012.8 hPa Calm     94% 0 mm
09:39 6.6 °C 5.5 °C 1012.8 hPa Calm     93% 0 mm
09:44 6.8 °C 5.6 °C 1012.8 hPa Calm     92% 0 mm
09:49 7.1 °C 5.8 °C 1012.8 hPa Calm     92% 0 mm
09:54 7.3 °C 5.9 °C 1013.1 hPa Calm     91% 0 mm
09:59 7.6 °C 5.8 °C 1013.1 hPa Calm   4.8 km/h 89% 0 mm
10:04 7.8 °C 5.7 °C 1013.1 hPa West 4.8 km/h 6.4 km/h 87% 0 mm
10:09 7.9 °C 5.6 °C 1013.1 hPa North 1.6 km/h 6.4 km/h 85% 0 mm
10:14 8.3 °C 5.7 °C 1013.1 hPa NW 1.6 km/h 6.4 km/h 84% 0 mm
10:19 8.4 °C 5.4 °C 1013.1 hPa WNW 1.6 km/h 11.3 km/h 81% 0 mm
10:24 8.6 °C 5.5 °C 1013.1 hPa WNW 3.2 km/h 11.3 km/h 81% 0 mm
10:29 8.4 °C 5.2 °C 1013.1 hPa WNW 3.2 km/h 8 km/h 80% 0 mm
10:34 8.9 °C 5.4 °C 1012.8 hPa NW 3.2 km/h 8 km/h 79% 0 mm
10:39 8.7 °C 4.7 °C 1012.8 hPa West 6.4 km/h 9.7 km/h 76% 0 mm
10:44 8.3 °C 4.3 °C 1012.8 hPa WNW 1.6 km/h 8 km/h 76% 0 mm
10:49 8.8 °C 5.2 °C 1012.8 hPa Calm   3.2 km/h 78% 0 mm
10:54 9.2 °C 5 °C 1012.8 hPa West 6.4 km/h 11.3 km/h 75% 0 mm
10:59 9.4 °C 5.2 °C 1012.8 hPa WNW 1.6 km/h 11.3 km/h 75% 0 mm
11:04 9.4 °C 5.1 °C 1012.8 hPa NW 8 km/h 8 km/h 74% 0 mm
11:09 9.8 °C 5.2 °C 1012.8 hPa West 1.6 km/h 8 km/h 73% 0 mm
11:14 9.4 °C 4.4 °C 1012.8 hPa West 3.2 km/h 11.3 km/h 71% 0 mm
11:19 9.2 °C 4 °C 1012.8 hPa West 4.8 km/h 11.3 km/h 70% 0 mm
11:24 9.4 °C 4.2 °C 1012.8 hPa WNW 4.8 km/h 9.7 km/h 70% 0 mm
11:29 9.7 °C 4.4 °C 1012.8 hPa WNW 3.2 km/h 16.1 km/h 70% 0 mm
11:34 9.9 °C 4.7 °C 1012.8 hPa WNW 4.8 km/h 16.1 km/h 70% 0 mm
11:39 10.2 °C 4.7 °C 1012.8 hPa WNW 3.2 km/h 11.3 km/h 69% 0 mm
11:44 10.4 °C 4.6 °C 1012.4 hPa WNW 8 km/h 11.3 km/h 67% 0 mm
11:49 10.4 °C 4.2 °C 1012.8 hPa WNW 6.4 km/h 12.9 km/h 65% 0 mm
11:54 10.8 °C 4.7 °C 1012.4 hPa WNW 6.4 km/h 12.9 km/h 66% 0 mm
11:59 10.8 °C 3.3 °C 1012.8 hPa West 6.4 km/h 16.1 km/h 60% 0 mm
12:04 11.1 °C 4.3 °C 1012.4 hPa West 9.7 km/h 14.5 km/h 63% 0 mm
12:09 11 °C 4 °C 1012.4 hPa NW 4.8 km/h 16.1 km/h 62% 0 mm
12:14 10.8 °C 3.4 °C 1012.4 hPa WSW 3.2 km/h 16.1 km/h 60% 0 mm
12:19 10.8 °C 2.8 °C 1012.4 hPa WNW 4.8 km/h 11.3 km/h 58% 0 mm
12:24 10.2 °C 2.6 °C 1012.4 hPa West 6.4 km/h 11.3 km/h 59% 0 mm
12:29 9.6 °C 2.4 °C 1012.1 hPa WSW 4.8 km/h 11.3 km/h 61% 0 mm
12:34 10.2 °C 2.3 °C 1012.1 hPa WSW 3.2 km/h 9.7 km/h 58% 0 mm
12:39 10.3 °C 2.9 °C 1012.1 hPa West 4.8 km/h 12.9 km/h 60% 0 mm
12:44 10.3 °C 1.6 °C 1012.1 hPa West 4.8 km/h 12.9 km/h 55% 0 mm
12:49 9.8 °C 1.9 °C 1012.1 hPa WNW 1.6 km/h 9.7 km/h 58% 0 mm
12:54 9.3 °C 1.7 °C 1012.1 hPa WNW 3.2 km/h 8 km/h 59% 0 mm
12:59 9.4 °C 2 °C 1011.7 hPa WSW 6.4 km/h 9.7 km/h 60% 0 mm
13:04 10.7 °C 3 °C 1011.7 hPa WNW 11.3 km/h 11.3 km/h 59% 0 mm
13:09 11.5 °C 2.5 °C 1011.7 hPa West 8 km/h 16.1 km/h 54% 0 mm
13:14 11.6 °C 1.8 °C 1011.7 hPa West 11.3 km/h 16.1 km/h 51% 0 mm
13:19 10.8 °C 1.3 °C 1011.7 hPa WNW 11.3 km/h 12.9 km/h 52% 0 mm
13:24 10.3 °C 1.2 °C 1011.7 hPa WSW 9.7 km/h 16.1 km/h 53% 0 mm
13:29 10.3 °C 2.2 °C 1011.7 hPa WSW 4.8 km/h 12.9 km/h 57% 0 mm
13:34 10.3 °C 2.4 °C 1011.7 hPa West 6.4 km/h 12.9 km/h 58% 0 mm
13:39 10.3 °C 3.1 °C 1011.7 hPa WSW 6.4 km/h 16.1 km/h 61% 0 mm
13:44 10.3 °C 3.1 °C 1011.4 hPa WSW 6.4 km/h 16.1 km/h 61% 0 mm
13:49 10.8 °C 3.8 °C 1011.7 hPa WSW 6.4 km/h 17.7 km/h 62% 0 mm
13:54 11.3 °C 4.6 °C 1011.7 hPa WSW 8 km/h 17.7 km/h 63% 0 mm
13:59 11.3 °C 3.1 °C 1011.7 hPa WSW 8 km/h 19.3 km/h 57% 0 mm
14:04 10.6 °C 2.4 °C 1011.7 hPa WSW 9.7 km/h 20.9 km/h 57% 0 mm
14:09 10.9 °C 3 °C 1011.7 hPa WNW 6.4 km/h 16.1 km/h 58% 0 mm
14:14 11.6 °C 3.4 °C 1011.7 hPa SW 11.3 km/h 17.7 km/h 57% 0 mm
14:19 10.9 °C 2.9 °C 1011.7 hPa WSW 1.6 km/h 12.9 km/h 58% 0 mm
14:24 10.6 °C 2.7 °C 1011.7 hPa WSW 1.6 km/h 19.3 km/h 58% 0 mm
14:29 10.6 °C 2.9 °C 1011.4 hPa SW 8 km/h 19.3 km/h 59% 0 mm
14:34 10.5 °C 2.6 °C 1011.4 hPa West 1.6 km/h 20.9 km/h 58% 0 mm
14:39 11.6 °C 3.3 °C 1011.4 hPa West 8 km/h 17.7 km/h 57% 0 mm
14:44 11.1 °C 2.9 °C 1011.7 hPa WSW 9.7 km/h 19.3 km/h 57% 0 mm
14:49 11.5 °C 3.3 °C 1011.7 hPa WSW 9.7 km/h 19.3 km/h 57% 0 mm
14:54 11.2 °C 3.3 °C 1011.7 hPa West 9.7 km/h 22.5 km/h 58% 0 mm
14:59 11.4 °C 3.2 °C 1011.4 hPa WSW 8 km/h 22.5 km/h 57% 0 mm
15:04 11.2 °C 2.5 °C 1011.4 hPa WSW 9.7 km/h 17.7 km/h 55% 0 mm
15:09 10.7 °C 2.5 °C 1011.7 hPa WSW 9.7 km/h 16.1 km/h 57% 0 mm
15:14 10.5 °C 2.8 °C 1011.7 hPa West 3.2 km/h 11.3 km/h 59% 0 mm
15:19 10.4 °C 2.5 °C 1011.7 hPa NW 4.8 km/h 17.7 km/h 58% 0 mm
15:24 10.5 °C 2.8 °C 1011.7 hPa WNW 14.5 km/h 22.5 km/h 59% 0 mm
15:29 10.5 °C 3.3 °C 1011.7 hPa WNW 9.7 km/h 17.7 km/h 61% 0 mm
15:34 10.5 °C 2.8 °C 1011.7 hPa West 8 km/h 14.5 km/h 59% 0 mm
15:39 10.6 °C 2.9 °C 1011.7 hPa WSW 6.4 km/h 14.5 km/h 59% 0 mm
15:44 10.7 °C 3 °C 1011.7 hPa WNW 4.8 km/h 14.5 km/h 59% 0 mm
15:49 10.8 °C 3.1 °C 1011.7 hPa West 4.8 km/h 14.5 km/h 59% 0 mm
15:54 10.6 °C 2.6 °C 1011.7 hPa West 6.4 km/h 16.1 km/h 58% 0 mm
15:59 10.2 °C 2.1 °C 1011.7 hPa West 6.4 km/h 16.1 km/h 57% 0 mm
16:04 10.1 °C 2.2 °C 1011.7 hPa West 6.4 km/h 14.5 km/h 58% 0 mm
16:09 10.1 °C 2.7 °C 1011.7 hPa WNW 4.8 km/h 11.3 km/h 60% 0 mm
16:14 10.1 °C 2.7 °C 1012.1 hPa West 3.2 km/h 9.7 km/h 60% 0 mm
16:19 10.2 °C 2.5 °C 1011.7 hPa WSW 11.3 km/h 11.3 km/h 59% 0 mm
16:24 10.2 °C 2.3 °C 1012.1 hPa SW 8 km/h 16.1 km/h 58% 0 mm
16:29 10.2 °C 2.8 °C 1012.1 hPa WSW 3.2 km/h 11.3 km/h 60% 0 mm
16:34 10.3 °C 2.8 °C 1012.1 hPa West 8 km/h 14.5 km/h 60% 0 mm
16:39 10.2 °C 2.7 °C 1012.1 hPa WSW 4.8 km/h 19.3 km/h 60% 0 mm
16:44 10.3 °C 2.7 °C 1012.1 hPa SW 8 km/h 20.9 km/h 59% 0 mm
16:49 10.4 °C 2.8 °C 1012.1 hPa WSW 12.9 km/h 20.9 km/h 59% 0 mm
16:54 10.6 °C 2.9 °C 1011.7 hPa WSW 11.3 km/h 17.7 km/h 59% 0 mm
16:59 10.8 °C 2.7 °C 1011.7 hPa WSW 8 km/h 17.7 km/h 57% 0 mm
17:04 11 °C 3.3 °C 1011.7 hPa West 8 km/h 17.7 km/h 59% 0 mm
17:09 11.1 °C 3.2 °C 1011.7 hPa West 8 km/h 16.1 km/h 58% 0 mm
17:14 11.1 °C 3.3 °C 1011.7 hPa West 6.4 km/h 14.5 km/h 59% 0 mm
17:19 10.8 °C 2.9 °C 1011.7 hPa WSW 6.4 km/h 14.5 km/h 58% 0 mm
17:24 10.7 °C 2.7 °C 1012.1 hPa West 6.4 km/h 12.9 km/h 58% 0 mm
17:29 10.7 °C 2.5 °C 1012.1 hPa West 6.4 km/h 14.5 km/h 57% 0 mm
17:34 10.5 °C 2.6 °C 1012.1 hPa West 4.8 km/h 14.5 km/h 58% 0 mm
17:39 10.2 °C 2.6 °C 1012.1 hPa WNW 4.8 km/h 9.7 km/h 59% 0 mm
17:44 10 °C 2.3 °C 1012.1 hPa WNW 3.2 km/h 8 km/h 59% 0 mm
17:49 9.8 °C 2.4 °C 1012.1 hPa WNW 4.8 km/h 8 km/h 60% 0 mm
17:54 9.7 °C 2.1 °C 1012.1 hPa West 1.6 km/h 9.7 km/h 59% 0 mm
17:59 9.6 °C 1.9 °C 1012.1 hPa West 3.2 km/h 11.3 km/h 59% 0 mm
18:04 9.4 °C 1.8 °C 1012.1 hPa West 4.8 km/h 11.3 km/h 59% 0 mm
18:09 9.3 °C 1.7 °C 1012.1 hPa West 3.2 km/h 8 km/h 59% 0 mm
18:14 9.3 °C 1.7 °C 1012.1 hPa West 3.2 km/h 8 km/h 59% 0 mm
18:19 9.2 °C 1.6 °C 1012.1 hPa West 3.2 km/h 8 km/h 59% 0 mm
18:24 9 °C 1.4 °C 1012.1 hPa WSW 3.2 km/h 6.4 km/h 59% 0 mm
18:29 8.9 °C 1.6 °C 1012.4 hPa West 3.2 km/h 6.4 km/h 60% 0 mm
18:34 8.7 °C 1.4 °C 1012.4 hPa West 3.2 km/h 4.8 km/h 60% 0 mm
18:39 8.6 °C 1.4 °C 1012.4 hPa West 1.6 km/h 4.8 km/h 61% 0 mm
18:44 8.4 °C 1.3 °C 1012.4 hPa West 1.6 km/h 6.4 km/h 61% 0 mm
18:49 8.3 °C 1.2 °C 1012.4 hPa West 1.6 km/h 6.4 km/h 61% 0 mm
18:54 8.1 °C 1.3 °C 1012.4 hPa West 1.6 km/h 3.2 km/h 62% 0 mm
18:59 7.8 °C 1.6 °C 1012.4 hPa West 1.6 km/h 3.2 km/h 65% 0 mm
19:04 7.4 °C 1.5 °C 1012.4 hPa Calm     66% 0 mm
19:09 7.2 °C 1.4 °C 1012.4 hPa Calm     67% 0 mm
19:14 7 °C 1.3 °C 1012.8 hPa Calm     67% 0 mm
19:19 6.8 °C 1.3 °C 1012.8 hPa Calm     68% 0 mm
19:24 6.4 °C 1.2 °C 1012.8 hPa Calm     69% 0 mm
19:29 6.2 °C 1.3 °C 1012.8 hPa Calm     71% 0 mm
19:34 6.1 °C 1.4 °C 1012.8 hPa Calm     72% 0 mm
19:39 5.9 °C 1.4 °C 1012.8 hPa Calm     73% 0 mm
19:44 5.7 °C 1.4 °C 1012.8 hPa Calm     74% 0 mm
19:49 5.5 °C 1.2 °C 1012.8 hPa Calm     74% 0 mm
19:54 5.4 °C 1.4 °C 1012.8 hPa Calm     75% 0 mm
19:59 5.3 °C 1.4 °C 1012.8 hPa Calm     76% 0 mm
20:04 5.2 °C 1.3 °C 1013.1 hPa Calm     76% 0 mm
20:09 4.9 °C 1.2 °C 1013.1 hPa Calm     77% 0 mm
20:14 4.8 °C 1.1 °C 1013.1 hPa Calm     77% 0 mm
20:19 4.8 °C 1.3 °C 1012.8 hPa Calm     78% 0 mm
20:24 4.6 °C 1.1 °C 1013.1 hPa Calm     78% 0 mm
20:29 4.6 °C 1.1 °C 1013.1 hPa Calm     78% 0 mm
20:34 4.5 °C 1.2 °C 1012.8 hPa Calm     79% 0 mm
20:39 4.4 °C 1.1 °C 1012.8 hPa Calm     79% 0 mm
20:44 4.4 °C 1.1 °C 1013.1 hPa Calm     79% 0 mm
20:49 4.2 °C 0.9 °C 1013.1 hPa Calm     79% 0 mm
20:54 4.2 °C 1.1 °C 1013.1 hPa Calm     80% 0 mm
20:59 4.2 °C 1.1 °C 1013.1 hPa Calm     80% 0 mm
21:04 4.2 °C 1.1 °C 1013.1 hPa Calm     80% 0 mm
21:09 4.1 °C 0.9 °C 1013.1 hPa Calm     80% 0 mm
21:14 4.1 °C 0.9 °C 1013.1 hPa Calm     80% 0 mm
21:19 4 °C 1.1 °C 1013.1 hPa Calm     81% 0 mm
21:24 3.9 °C 0.9 °C 1013.1 hPa Calm     81% 0 mm
21:29 3.8 °C 1 °C 1013.1 hPa Calm     82% 0 mm
21:34 3.7 °C 0.9 °C 1013.1 hPa Calm     82% 0 mm
21:39 3.6 °C 1 °C 1013.1 hPa Calm     83% 0 mm
21:44 3.6 °C 0.9 °C 1013.1 hPa Calm     83% 0 mm
21:49 3.4 °C 0.8 °C 1013.1 hPa Calm     83% 0 mm
21:54 3.3 °C 0.7 °C 1013.1 hPa Calm     83% 0 mm
21:59 3.3 °C 0.8 °C 1013.1 hPa Calm     84% 0 mm
22:04 3.2 °C 0.8 °C 1013.1 hPa Calm     84% 0 mm
22:09 3.1 °C 0.7 °C 1013.1 hPa Calm     84% 0 mm
22:14 3.1 °C 0.8 °C 1013.1 hPa Calm     85% 0 mm
22:19 3 °C 0.7 °C 1013.1 hPa Calm     85% 0 mm
22:24 2.9 °C 0.7 °C 1013.1 hPa Calm     85% 0 mm
22:29 2.9 °C 0.6 °C 1013.1 hPa Calm     85% 0 mm
22:34 2.8 °C 0.7 °C 1013.1 hPa Calm     86% 0 mm
22:39 2.8 °C 0.7 °C 1013.1 hPa Calm     86% 0 mm
22:44 2.7 °C 0.6 °C 1013.1 hPa Calm     86% 0 mm
22:49 2.7 °C 0.6 °C 1013.1 hPa Calm     86% 0 mm
22:54 2.9 °C 0.8 °C 1013.1 hPa Calm     86% 0 mm
23:04 3.1 °C 0.8 °C 1013.1 hPa Calm     85% 0 mm
23:09 3.2 °C 0.9 °C 1013.1 hPa Calm     85% 0 mm
23:14 3.3 °C 0.9 °C 1013.1 hPa Calm     84% 0 mm
23:19 3.5 °C 1.1 °C 1013.1 hPa Calm     84% 0 mm
23:24 3.4 °C 0.8 °C 1013.1 hPa Calm     83% 0 mm
23:29 3.3 °C 0.7 °C 1013.1 hPa Calm     83% 0 mm
23:34 3.2 °C 0.6 °C 1013.1 hPa Calm     83% 0 mm
23:39 3.2 °C 0.7 °C 1013.1 hPa Calm     84% 0 mm
23:44 3.1 °C 0.7 °C 1013.1 hPa Calm     84% 0 mm
23:49 3.1 °C 0.6 °C 1013.1 hPa Calm     84% 0 mm
23:54 2.8 °C 0.4 °C 1013.1 hPa Calm     84% 0 mm
23:59 2.8 °C 0.5 °C 1013.1 hPa Calm     85% 0 mm
Buffalo, New York, USA
Compliments of Weather Underground - 2.5 mb